MST,Max TemperatureF,Mean TemperatureF,Min TemperatureF,Max Dew PointF,MeanDew PointF,Min DewpointF,Max Humidity, Mean Humidity, Min Humidity, Max Sea Level PressureIn, Mean Sea Level PressureIn, Min Sea Level PressureIn, Max VisibilityMiles, Mean VisibilityMiles, Min VisibilityMiles, Max Wind SpeedMPH, Mean Wind SpeedMPH, Max Gust SpeedMPH,PrecipitationIn, CloudCover, Events, WindDirDegrees
2012-12-1,59,47,35,30,28,25,64,49,33,30.11,30.03,29.95,10,10,7,12,4,15,0.00,2,,337
2012-12-2,56,46,35,30,28,26,70,53,35,30.06,29.94,29.80,10,10,7,20,10,23,0.00,2,,86
2012-12-3,54,40,26,40,30,20,92,68,43,30.31,30.10,29.81,10,10,7,15,6,20,0.03,3,Rain,331
2012-12-4,50,38,25,25,22,19,81,55,29,30.49,30.40,30.32,10,10,10,14,6,15,0.00,0,,107
2012-12-5,48,36,23,24,21,16,74,54,34,30.32,30.18,30.03,10,10,10,13,2,15,0.00,4,,76
2012-12-6,53,42,30,33,28,24,85,65,44,30.04,29.97,29.89,10,10,10,9,3,12,T,4,,23
2012-12-7,51,40,29,36,27,19,85,61,36,30.01,29.94,29.88,10,10,10,10,3,14,0.00,2,,322
2012-12-8,53,38,22,24,19,13,84,52,19,29.96,29.87,29.73,10,10,7,26,9,33,T,3,Snow,333
2012-12-9,31,23,14,25,9,-9,88,53,17,30.38,30.13,29.96,10,8,1,23,9,29,0.02,5,Snow,43
2012-12-10,28,21,14,13,5,1,88,63,37,30.36,30.27,30.19,10,10,10,21,7,23,0.00,5,,133
2012-12-11,37,24,10,18,15,8,92,66,40,30.28,30.18,30.02,10,10,10,22,6,28,0.00,2,,106
2012-12-12,43,33,23,17,15,14,74,54,33,30.05,29.99,29.93,10,10,10,24,10,29,0.00,0,,84
2012-12-13,56,41,26,18,16,13,63,42,20,30.03,29.93,29.78,10,10,10,17,7,22,0.00,1,,108
2012-12-14,43,38,32,36,28,18,100,70,39,29.82,29.69,29.53,10,9,4,18,5,21,0.03,7,Rain,68
2012-12-15,39,36,32,34,33,31,100,88,76,29.88,29.82,29.78,10,8,1,12,4,13,0.18,7,Rain-Snow,354
2012-12-16,41,35,28,32,29,23,100,75,50,30.02,29.87,29.81,10,6,1,21,6,24,0.05,7,Snow,336
2012-12-17,41,35,28,31,26,24,92,76,59,30.01,29.93,29.83,10,10,10,16,5,20,0.00,7,,183
2012-12-18,43,35,26,34,29,26,100,77,53,29.83,29.64,29.51,10,7,0,22,9,26,0.17,8,Fog-Rain-Snow,217
2012-12-19,26,13,0,25,14,-3,100,75,49,30.57,29.96,29.54,10,7,0,20,7,25,0.32,5,Fog-Snow,306
2012-12-20,18,9,-1,7,0,-5,87,72,56,30.82,30.72,30.58,10,10,10,17,6,18,0.00,0,,82
2012-12-21,16,7,-3,9,1,-6,91,79,67,30.73,30.62,30.51,10,10,10,9,3,10,0.00,0,,49
2012-12-22,16,6,-5,9,2,-7,95,84,73,30.58,30.48,30.37,10,10,7,10,2,12,0.00,0,,33
2012-12-23,23,13,3,15,9,1,92,80,68,30.42,30.30,30.14,10,9,7,8,2,9,0.00,2,,26
2012-12-24,29,24,18,29,23,15,100,89,77,30.10,29.84,29.70,10,3,0,21,6,24,0.17,8,Fog-Snow,332
2012-12-25,26,17,7,22,14,8,100,84,68,30.29,30.20,29.98,10,10,10,15,5,18,0.00,3,,17
2012-12-26,24,17,10,22,18,12,100,91,81,30.17,29.87,29.69,10,6,2,13,3,14,0.01,7,Snow,313
2012-12-27,27,20,12,25,20,12,100,92,84,30.08,29.85,29.73,10,4,0,14,3,15,0.02,7,Fog-Snow,338
2012-12-28,21,11,1,14,7,1,100,89,77,30.49,30.20,29.95,10,5,0,13,4,14,T,3,Fog,70
2012-12-29,20,9,-3,11,3,-4,91,79,67,30.53,30.43,30.33,10,10,10,16,5,16,0.00,0,,88
2012-12-30,20,8,-4,16,8,-4,100,81,62,30.31,30.16,29.90,10,8,1,7,2,7,0.02,6,Snow,27
2012-12-31,21,13,4,17,12,5,100,92,84,30.32,30.07,29.88,10,7,2,12,6,14,0.04,6,Snow,324